createdAt,value
2019-02-12T00:01:56.157Z,10.93
2019-02-12T00:04:23.877Z,12.83
2019-02-12T00:06:51.585Z,11.87
2019-02-12T00:09:19.305Z,11.23
2019-02-12T00:11:47.034Z,11.67
2019-02-12T00:14:14.749Z,10.73
2019-02-12T00:16:42.502Z,10.87
2019-02-12T00:19:10.234Z,10.77
2019-02-12T00:21:37.945Z,10.57
2019-02-12T00:24:05.680Z,10.97
2019-02-12T00:26:33.409Z,11.50
2019-02-12T00:29:01.133Z,10.30
2019-02-12T00:31:28.858Z,10.83
2019-02-12T00:33:56.597Z,10.80
2019-02-12T00:36:24.322Z,10.57
2019-02-12T00:38:52.030Z,10.13
2019-02-12T00:41:19.744Z,9.33
2019-02-12T00:43:47.462Z,9.83
2019-02-12T00:46:15.185Z,9.07
2019-02-12T00:48:42.901Z,9.37
2019-02-12T00:51:17.522Z,10.07
2019-02-12T00:53:40.153Z,9.17
2019-02-12T00:56:07.893Z,9.60
2019-02-12T00:58:35.609Z,9.67
2019-02-12T01:01:03.329Z,9.20
2019-02-12T01:03:31.043Z,8.50
2019-02-12T01:05:58.776Z,9.23
2019-02-12T01:08:26.477Z,7.87
2019-02-12T01:10:54.205Z,6.60
2019-02-12T01:13:21.909Z,7.10
2019-02-12T01:15:49.643Z,7.17
2019-02-12T01:18:17.344Z,8.10
2019-02-12T01:20:45.070Z,8.80
2019-02-12T01:23:12.771Z,7.70
2019-02-12T01:25:40.505Z,7.10
2019-02-12T01:28:08.277Z,7.80
2019-02-12T01:30:36.020Z,7.10
2019-02-12T01:33:03.717Z,8.17
2019-02-12T01:35:31.473Z,9.10
2019-02-12T01:37:59.188Z,9.90
2019-02-12T01:40:26.890Z,10.37
2019-02-12T01:42:54.619Z,9.87
2019-02-12T01:45:22.317Z,10.97
2019-02-12T01:47:50.054Z,11.67
2019-02-12T01:50:17.755Z,12.50
2019-02-12T01:52:45.472Z,11.53
2019-02-12T01:55:13.173Z,9.77
2019-02-12T01:57:40.901Z,9.90
2019-02-12T02:00:10.954Z,10.60
2019-02-12T02:02:38.675Z,10.77
2019-02-12T02:05:07.233Z,12.07
2019-02-12T02:07:34.964Z,12.20
2019-02-12T02:10:04.105Z,11.90
2019-02-12T02:12:31.844Z,11.27
2019-02-12T02:14:59.554Z,12.57
2019-02-12T02:17:27.269Z,11.40
2019-02-12T02:19:54.973Z,10.13
2019-02-12T02:22:22.745Z,11.13
2019-02-12T02:24:50.440Z,9.67
2019-02-12T02:27:18.176Z,10.07
2019-02-12T02:29:45.943Z,11.53
2019-02-12T02:32:13.668Z,9.87
2019-02-12T02:34:41.370Z,8.63
2019-02-12T02:37:09.096Z,8.77
2019-02-12T02:39:36.807Z,8.50
2019-02-12T02:42:04.517Z,8.73
2019-02-12T02:44:32.237Z,9.60
2019-02-12T02:46:59.930Z,9.10
2019-02-12T02:49:27.629Z,8.00
2019-02-12T02:51:55.361Z,7.77
2019-02-12T02:54:23.061Z,7.97
2019-02-12T02:56:50.765Z,8.03
2019-02-12T02:59:18.524Z,8.30
2019-02-12T03:01:46.236Z,7.67
2019-02-12T03:04:14.009Z,8.13
2019-02-12T03:06:41.773Z,8.10
2019-02-12T03:09:09.498Z,8.93
2019-02-12T03:11:37.205Z,11.70
2019-02-12T03:14:04.926Z,11.10
2019-02-12T03:16:32.645Z,11.10
2019-02-12T03:19:00.386Z,11.87
2019-02-12T03:21:28.099Z,12.37
2019-02-12T03:23:55.829Z,11.90
2019-02-12T03:26:23.565Z,11.73
2019-02-12T03:28:51.305Z,11.53
2019-02-12T03:31:19.022Z,11.83
2019-02-12T03:33:46.759Z,13.40
2019-02-12T03:36:14.465Z,12.07
2019-02-12T03:38:42.188Z,10.83
2019-02-12T03:41:09.906Z,11.00
2019-02-12T03:43:37.642Z,11.27
2019-02-12T03:46:05.350Z,11.27
2019-02-12T03:48:33.105Z,12.73
2019-02-12T03:51:00.833Z,11.83
2019-02-12T03:53:28.565Z,9.70
2019-02-12T03:55:56.281Z,8.80
2019-02-12T03:58:24.006Z,10.00
2019-02-12T04:00:51.713Z,9.43
2019-02-12T04:03:19.466Z,11.50
2019-02-12T04:05:47.183Z,9.87
2019-02-12T04:08:14.901Z,11.10
2019-02-12T04:10:42.629Z,10.47
2019-02-12T04:13:10.354Z,11.27
2019-02-12T04:15:38.194Z,10.90
2019-02-12T04:18:05.898Z,11.10
2019-02-12T04:20:33.625Z,10.30
2019-02-12T04:23:01.317Z,10.60
2019-02-12T04:25:29.047Z,12.17
2019-02-12T04:27:56.787Z,10.70
2019-02-12T04:30:24.587Z,10.20
2019-02-12T04:32:52.306Z,9.63
2019-02-12T04:35:20.063Z,9.13
2019-02-12T04:37:47.824Z,9.20
2019-02-12T04:40:15.549Z,9.47
2019-02-12T04:42:43.265Z,10.00
2019-02-12T04:45:11.003Z,10.30
2019-02-12T04:47:38.713Z,8.97
2019-02-12T04:50:07.317Z,11.17
2019-02-12T04:52:35.024Z,10.80
2019-02-12T04:55:02.759Z,10.50
2019-02-12T04:57:30.466Z,8.90
2019-02-12T04:59:58.193Z,9.10
2019-02-12T05:02:25.918Z,9.13
2019-02-12T05:04:53.664Z,9.40
2019-02-12T05:07:21.366Z,8.43
2019-02-12T05:09:51.453Z,8.53
2019-02-12T05:12:20.503Z,7.73
2019-02-12T05:14:48.232Z,7.70
2019-02-12T05:17:15.953Z,8.13
2019-02-12T05:19:43.670Z,8.23
2019-02-12T05:22:11.427Z,8.57
2019-02-12T05:24:39.151Z,9.03
2019-02-12T05:27:06.890Z,8.27
2019-02-12T05:29:34.597Z,7.53
2019-02-12T05:32:02.399Z,9.10
2019-02-12T05:34:30.123Z,8.43
2019-02-12T05:36:57.852Z,8.63
2019-02-12T05:39:25.594Z,7.27
2019-02-12T05:41:53.317Z,6.67
2019-02-12T05:44:21.031Z,6.90
2019-02-12T05:46:48.769Z,7.17
2019-02-12T05:49:16.496Z,8.23
2019-02-12T05:51:44.221Z,7.60
2019-02-12T05:54:11.957Z,7.67
2019-02-12T05:56:39.694Z,7.33
2019-02-12T05:59:07.401Z,8.87
2019-02-12T06:01:35.121Z,10.67
2019-02-12T06:04:02.859Z,10.83
2019-02-12T06:06:30.566Z,14.30
2019-02-12T06:08:58.324Z,13.30
2019-02-12T06:11:27.501Z,10.17
2019-02-12T06:13:55.389Z,11.60
2019-02-12T06:16:23.077Z,8.97
2019-02-12T06:18:50.778Z,9.40
2019-02-12T06:21:18.501Z,9.47
2019-02-12T06:23:46.250Z,9.37
2019-02-12T06:26:14.023Z,9.07
2019-02-12T06:28:41.713Z,10.20
2019-02-12T06:31:09.451Z,7.73
2019-02-12T06:33:37.175Z,8.47
2019-02-12T06:36:04.894Z,8.90
2019-02-12T06:38:32.677Z,9.70
2019-02-12T06:41:00.366Z,9.77
2019-02-12T06:43:28.126Z,9.40
2019-02-12T06:45:55.858Z,8.77
2019-02-12T06:48:23.565Z,10.53
2019-02-12T06:50:51.353Z,10.00
2019-02-12T06:53:19.062Z,9.73
2019-02-12T06:55:46.793Z,10.03
2019-02-12T06:58:14.679Z,10.97
2019-02-12T07:00:42.414Z,11.60
2019-02-12T07:03:17.644Z,9.73
2019-02-12T07:06:04.565Z,7.77
2019-02-12T07:08:56.775Z,8.77
2019-02-12T07:12:03.262Z,9.70
2019-02-12T07:14:45.535Z,11.77
2019-02-12T07:17:56.365Z,10.37
2019-02-12T07:21:06.019Z,9.77
2019-02-12T07:23:58.229Z,7.07
2019-02-12T07:26:58.716Z,8.23
2019-02-12T07:30:17.262Z,8.30
2019-02-12T07:33:35.320Z,9.70
2019-02-12T07:36:28.213Z,8.90
2019-02-12T07:39:22.771Z,8.40
2019-02-12T07:42:29.985Z,9.23
2019-02-12T07:45:29.801Z,8.43
2019-02-12T07:48:33.678Z,9.93
2019-02-12T07:51:53.854Z,9.00
2019-02-12T07:54:52.903Z,9.37
2019-02-12T07:57:49.289Z,10.07
2019-02-12T08:00:50.148Z,10.90
2019-02-12T08:04:10.570Z,11.97
2019-02-12T08:07:29.220Z,10.93
2019-02-12T08:10:30.741Z,10.63
2019-02-12T08:13:46.354Z,10.53
2019-02-12T08:16:26.921Z,11.60
2019-02-12T08:19:32.585Z,12.10
2019-02-12T08:22:45.304Z,12.03
2019-02-12T08:25:39.333Z,11.40
2019-02-12T08:28:36.673Z,11.13
2019-02-12T08:31:30.961Z,13.07
2019-02-12T08:34:35.271Z,12.57
2019-02-12T08:37:25.866Z,10.70
2019-02-12T08:40:24.745Z,9.97
2019-02-12T08:43:01.930Z,12.63
2019-02-12T08:46:01.799Z,9.83
2019-02-12T08:48:50.235Z,11.53
2019-02-12T08:52:10.769Z,10.40
2019-02-12T08:54:48.078Z,10.90
2019-02-12T08:57:44.137Z,10.70
2019-02-12T09:00:48.747Z,11.27
2019-02-12T09:03:57.879Z,12.37
2019-02-12T09:07:03.605Z,15.23
2019-02-12T09:10:08.866Z,14.17
2019-02-12T09:13:30.797Z,14.23
2019-02-12T09:16:46.318Z,13.90
2019-02-12T09:19:31.073Z,15.87
2019-02-12T09:22:11.068Z,16.17
2019-02-12T09:25:08.369Z,15.33
2019-02-12T09:28:25.442Z,18.03
2019-02-12T09:31:29.911Z,16.70
2019-02-12T09:34:13.971Z,15.00
2019-02-12T09:37:04.296Z,13.67
2019-02-12T09:40:03.321Z,13.80
2019-02-12T09:43:10.523Z,14.27
2019-02-12T09:46:07.167Z,14.60
2019-02-12T09:49:17.003Z,13.63
2019-02-12T09:52:26.246Z,13.17
2019-02-12T09:55:12.769Z,12.67
2019-02-12T09:58:06.118Z,12.33
2019-02-12T10:01:10.022Z,14.40
2019-02-12T10:04:29.917Z,12.63
2019-02-12T10:07:31.888Z,13.97
2019-02-12T10:10:36.708Z,13.87
2019-02-12T10:13:10.605Z,12.77
2019-02-12T10:16:05.670Z,14.30
2019-02-12T10:19:07.129Z,14.87
2019-02-12T10:22:12.153Z,16.07
2019-02-12T10:24:56.229Z,16.83
2019-02-12T10:28:11.838Z,18.87
2019-02-12T10:31:04.948Z,18.17
2019-02-12T10:33:32.727Z,19.40
2019-02-12T10:36:00.506Z,19.23
2019-02-12T10:38:28.234Z,19.87
2019-02-12T10:40:56.026Z,19.37
2019-02-12T10:43:23.755Z,16.33
2019-02-12T10:45:51.490Z,15.60
2019-02-12T10:48:19.197Z,15.40
2019-02-12T10:50:46.932Z,14.70
2019-02-12T10:53:14.639Z,15.10
2019-02-12T10:55:42.374Z,11.07
2019-02-12T10:58:10.151Z,10.27
2019-02-12T11:00:37.934Z,11.27
2019-02-12T11:03:05.667Z,10.17
2019-02-12T11:05:33.384Z,10.10
2019-02-12T11:08:01.139Z,9.83
2019-02-12T11:10:28.906Z,7.73
2019-02-12T11:12:56.665Z,9.90
2019-02-12T11:15:24.670Z,10.63
2019-02-12T11:17:52.403Z,10.93
2019-02-12T11:20:20.097Z,11.05
2019-02-12T11:22:47.825Z,7.83
2019-02-12T11:25:15.549Z,8.90
2019-02-12T11:27:43.283Z,8.27
2019-02-12T11:30:11.052Z,8.73
2019-02-12T11:32:38.758Z,9.33
2019-02-12T11:35:07.125Z,8.47
2019-02-12T11:37:36.667Z,9.70
2019-02-12T11:40:05.073Z,8.57
2019-02-12T11:42:32.806Z,8.63
2019-02-12T11:45:00.518Z,8.50
2019-02-12T11:47:28.623Z,8.10
2019-02-12T11:49:56.377Z,7.57
2019-02-12T11:52:24.303Z,7.57
2019-02-12T11:54:52.048Z,7.90
2019-02-12T11:57:19.753Z,8.23
2019-02-12T11:59:47.493Z,7.47
2019-02-12T12:02:22.500Z,7.70
2019-02-12T12:04:50.217Z,8.23
2019-02-12T12:07:17.921Z,7.83
2019-02-12T12:09:45.657Z,7.87
2019-02-12T12:12:13.362Z,7.13
2019-02-12T12:14:41.062Z,7.17
2019-02-12T12:17:08.793Z,6.43
2019-02-12T12:19:36.501Z,7.37
2019-02-12T12:22:04.245Z,7.60
2019-02-12T12:24:32.023Z,8.48
2019-02-12T12:27:00.700Z,6.53
2019-02-12T12:29:28.317Z,6.57
2019-02-12T12:31:56.049Z,6.37
2019-02-12T12:34:23.772Z,6.50
2019-02-12T12:36:51.552Z,6.97
2019-02-12T12:39:19.274Z,6.17
2019-02-12T12:41:46.999Z,6.23
2019-02-12T12:44:14.718Z,6.17
2019-02-12T12:46:42.456Z,4.60
2019-02-12T12:49:10.165Z,5.87
2019-02-12T12:51:37.889Z,4.07
2019-02-12T12:54:05.614Z,4.37
2019-02-12T12:56:33.603Z,4.40
2019-02-12T12:59:02.301Z,4.23
2019-02-12T13:01:30.045Z,3.63
2019-02-12T13:03:57.761Z,4.50
2019-02-12T13:06:25.485Z,5.50
2019-02-12T13:08:53.217Z,4.13
2019-02-12T13:11:20.955Z,4.57
2019-02-12T13:13:48.751Z,4.83
2019-02-12T13:16:16.681Z,8.83
2019-02-12T13:18:44.581Z,6.03
2019-02-12T13:21:12.326Z,4.40
2019-02-12T13:23:40.324Z,4.53
2019-02-12T13:26:08.354Z,6.03
2019-02-12T13:28:36.117Z,4.70
2019-02-12T13:31:03.964Z,4.50
2019-02-12T13:33:31.699Z,4.50
2019-02-12T13:36:01.389Z,3.73
2019-02-12T13:38:29.523Z,4.17
2019-02-12T13:40:57.227Z,5.63
2019-02-12T13:43:25.010Z,4.93
2019-02-12T13:45:52.962Z,3.50
2019-02-12T13:48:20.689Z,4.20
2019-02-12T13:50:48.491Z,3.50
2019-02-12T13:53:16.509Z,3.97
2019-02-12T13:55:44.221Z,4.17
2019-02-12T13:58:11.948Z,3.90
2019-02-12T14:00:39.656Z,4.20
2019-02-12T14:03:07.597Z,3.97
2019-02-12T14:05:35.323Z,3.30
2019-02-12T14:08:04.707Z,2.97
2019-02-12T14:10:32.584Z,3.17
2019-02-12T14:13:00.322Z,2.70
2019-02-12T14:15:28.026Z,3.53
2019-02-12T14:17:56.172Z,2.83
2019-02-12T14:20:24.022Z,3.93
2019-02-12T14:22:51.736Z,2.73
2019-02-12T14:25:25.302Z,2.03
2019-02-12T14:27:49.021Z,2.07
2019-02-12T14:30:16.730Z,1.90
2019-02-12T14:32:44.493Z,1.70
2019-02-12T14:35:12.227Z,2.30
2019-02-12T14:37:40.031Z,1.47
2019-02-12T14:40:08.894Z,1.80
2019-02-12T14:42:36.637Z,1.97
2019-02-12T14:45:05.742Z,2.17
2019-02-12T14:47:33.444Z,1.77
2019-02-12T14:50:01.174Z,2.00
2019-02-12T14:52:28.962Z,1.53
2019-02-12T14:54:56.694Z,1.70
2019-02-12T14:57:24.412Z,1.60
2019-02-12T14:59:52.149Z,2.30
2019-02-12T15:02:20.243Z,2.10
2019-02-12T15:04:47.989Z,2.03
2019-02-12T15:07:16.734Z,2.97
2019-02-12T15:09:44.926Z,2.30
2019-02-12T15:12:16.845Z,2.20
2019-02-12T15:14:45.709Z,2.43
2019-02-12T15:17:16.102Z,2.10
2019-02-12T15:19:44.165Z,1.70
2019-02-12T15:22:16.096Z,1.87
2019-02-12T15:24:44.693Z,1.50
2019-02-12T15:27:17.852Z,1.77
2019-02-12T15:29:49.215Z,2.23
2019-02-12T15:32:16.867Z,2.07
2019-02-12T15:34:44.609Z,1.90
2019-02-12T15:37:12.657Z,2.00
2019-02-12T15:39:45.076Z,2.20
2019-02-12T15:42:14.633Z,2.03
2019-02-12T15:44:42.357Z,2.20
2019-02-12T15:47:10.881Z,1.93
2019-02-12T15:49:38.918Z,2.47
2019-02-12T15:52:06.911Z,1.77
2019-02-12T15:54:34.915Z,2.33
2019-02-12T15:57:02.637Z,2.40
2019-02-12T15:59:33.475Z,3.97
2019-02-12T16:02:02.382Z,2.83
2019-02-12T16:04:30.162Z,2.40
2019-02-12T16:06:59.817Z,2.40
2019-02-12T16:09:31.143Z,2.30
2019-02-12T16:11:58.871Z,2.20
2019-02-12T16:14:27.885Z,2.37
2019-02-12T16:16:55.935Z,2.90
2019-02-12T16:19:23.963Z,2.37
2019-02-12T16:21:53.021Z,2.60
2019-02-12T16:24:21.866Z,2.37
2019-02-12T16:26:49.888Z,2.60
2019-02-12T16:29:18.217Z,1.80
2019-02-12T16:31:45.961Z,2.87
2019-02-12T16:34:14.754Z,4.17
2019-02-12T16:36:47.142Z,3.70
2019-02-12T16:39:14.420Z,3.03
2019-02-12T16:41:42.909Z,4.65
2019-02-12T16:44:12.876Z,3.73
2019-02-12T16:46:40.769Z,3.85
2019-02-12T16:49:11.573Z,4.20
2019-02-12T16:51:40.389Z,3.63
2019-02-12T16:54:11.281Z,4.57
2019-02-12T16:56:41.875Z,4.70
2019-02-12T16:59:11.592Z,4.73
2019-02-12T17:01:41.366Z,4.73
2019-02-12T17:04:13.337Z,6.40
2019-02-12T17:06:41.077Z,4.07
2019-02-12T17:09:09.025Z,5.00
2019-02-12T17:11:36.771Z,3.70
2019-02-12T17:14:04.877Z,4.17
2019-02-12T17:16:32.621Z,4.50
2019-02-12T17:19:02.597Z,5.87
2019-02-12T17:21:30.369Z,4.67
2019-02-12T17:23:58.082Z,7.00
2019-02-12T17:26:25.822Z,6.47
2019-02-12T17:28:53.533Z,26.60
2019-02-12T17:31:21.266Z,8.03
2019-02-12T17:33:48.986Z,5.93
2019-02-12T17:36:16.706Z,5.20
2019-02-12T17:38:44.444Z,5.20
2019-02-12T17:41:12.175Z,6.03
2019-02-12T17:43:39.929Z,5.77
2019-02-12T17:46:07.637Z,6.50
2019-02-12T17:48:35.372Z,5.10
2019-02-12T17:51:03.080Z,5.57
2019-02-12T17:53:31.064Z,5.60
2019-02-12T17:55:58.816Z,4.97
2019-02-12T17:58:26.584Z,6.07
2019-02-12T18:00:54.301Z,6.17
2019-02-12T18:03:22.039Z,6.77
2019-02-12T18:05:49.738Z,6.53
2019-02-12T18:08:19.274Z,6.63
2019-02-12T18:10:47.020Z,8.23
2019-02-12T18:13:14.946Z,8.87
2019-02-12T18:15:42.681Z,9.63
2019-02-12T18:18:10.417Z,7.43
2019-02-12T18:20:38.149Z,9.80
2019-02-12T18:23:05.889Z,13.03
2019-02-12T18:25:33.602Z,13.47
2019-02-12T18:28:01.329Z,14.80
2019-02-12T18:30:29.040Z,21.40
2019-02-12T18:32:56.761Z,25.47
2019-02-12T18:35:24.475Z,25.73
2019-02-12T18:37:52.227Z,23.33
2019-02-12T18:40:20.036Z,19.87
2019-02-12T18:42:47.771Z,20.73
2019-02-12T18:45:15.813Z,17.20
2019-02-12T18:47:43.574Z,18.10
2019-02-12T18:50:11.558Z,33.60
2019-02-12T18:52:39.246Z,29.97
2019-02-12T18:55:07.716Z,23.23
2019-02-12T18:57:35.457Z,30.27
2019-02-12T19:00:03.809Z,31.03
2019-02-12T19:02:31.842Z,25.83
2019-02-12T19:05:01.289Z,25.43
2019-02-12T19:07:29.001Z,20.40
2019-02-12T19:09:56.745Z,18.80
2019-02-12T19:12:24.526Z,15.70
2019-02-12T19:14:52.292Z,15.53
2019-02-12T19:17:20.001Z,16.73
2019-02-12T19:19:47.722Z,16.43
2019-02-12T19:22:15.441Z,15.77
2019-02-12T19:24:43.226Z,14.70
2019-02-12T19:27:10.942Z,19.63
2019-02-12T19:29:38.719Z,19.77
2019-02-12T19:32:06.449Z,21.10
2019-02-12T19:34:34.173Z,19.20
2019-02-12T19:37:01.895Z,23.80
2019-02-12T19:39:29.629Z,30.70
2019-02-12T19:41:57.425Z,28.73
2019-02-12T19:44:25.193Z,27.60
2019-02-12T19:46:52.972Z,28.47
2019-02-12T19:49:20.695Z,30.03
2019-02-12T19:51:48.420Z,30.37
2019-02-12T19:54:16.145Z,33.23
2019-02-12T19:56:43.917Z,35.03
2019-02-12T19:59:11.685Z,38.93
2019-02-12T20:01:39.430Z,55.90
2019-02-12T20:04:07.291Z,63.10
2019-02-12T20:06:35.021Z,58.93
2019-02-12T20:09:05.110Z,53.83
2019-02-12T20:11:32.853Z,50.93
2019-02-12T20:14:00.655Z,39.27
2019-02-12T20:16:28.415Z,33.90
2019-02-12T20:18:56.133Z,32.40
2019-02-12T20:21:23.868Z,33.77
2019-02-12T20:23:51.597Z,32.77
2019-02-12T20:26:19.327Z,30.57
2019-02-12T20:28:47.037Z,29.63
2019-02-12T20:31:14.777Z,30.77
2019-02-12T20:33:42.519Z,32.63
2019-02-12T20:36:10.267Z,34.63
2019-02-12T20:38:37.998Z,34.77
2019-02-12T20:41:05.756Z,34.57
2019-02-12T20:43:33.464Z,34.07
2019-02-12T20:46:01.289Z,32.87
2019-02-12T20:48:29.009Z,34.80
2019-02-12T20:50:56.808Z,35.57
2019-02-12T20:53:24.524Z,32.17
2019-02-12T20:55:52.285Z,31.40
2019-02-12T20:58:19.997Z,33.77
2019-02-12T21:00:47.740Z,39.30
2019-02-12T21:03:15.508Z,36.03
2019-02-12T21:05:43.270Z,36.83
2019-02-12T21:08:10.980Z,36.17
2019-02-12T21:10:38.709Z,36.00
2019-02-12T21:13:06.415Z,36.47
2019-02-12T21:15:34.138Z,35.17
2019-02-12T21:18:01.981Z,39.83
2019-02-12T21:20:29.705Z,38.20
2019-02-12T21:22:57.488Z,36.97
2019-02-12T21:25:25.210Z,40.17
2019-02-12T21:27:52.921Z,39.43
2019-02-12T21:30:20.752Z,34.50
2019-02-12T21:32:48.601Z,33.70
2019-02-12T21:35:16.319Z,30.67
2019-02-12T21:37:44.046Z,31.77
2019-02-12T21:40:19.265Z,30.07
2019-02-12T21:42:48.063Z,31.23
2019-02-12T21:45:15.804Z,25.83
2019-02-12T21:47:43.541Z,23.37
2019-02-12T21:50:11.237Z,24.23
2019-02-12T21:52:38.997Z,24.67
2019-02-12T21:55:07.725Z,24.33
2019-02-12T21:57:35.506Z,25.93
2019-02-12T22:00:03.473Z,23.30
2019-02-12T22:02:31.221Z,23.30
2019-02-12T22:04:58.944Z,21.20
2019-02-12T22:07:26.679Z,19.97
2019-02-12T22:09:54.435Z,21.40
2019-02-12T22:12:22.150Z,22.03
2019-02-12T22:14:49.857Z,22.33
2019-02-12T22:17:17.585Z,20.17
2019-02-12T22:19:45.305Z,22.07
2019-02-12T22:22:13.041Z,20.57
2019-02-12T22:24:41.657Z,22.17
2019-02-12T22:27:09.419Z,22.53
2019-02-12T22:29:37.155Z,21.40
2019-02-12T22:32:04.901Z,21.70
2019-02-12T22:34:32.642Z,24.33
2019-02-12T22:37:00.490Z,25.30
2019-02-12T22:39:28.225Z,29.10
2019-02-12T22:41:55.966Z,26.73
2019-02-12T22:44:23.709Z,24.47
2019-02-12T22:46:51.432Z,30.13
2019-02-12T22:49:19.152Z,28.53
2019-02-12T22:51:46.909Z,28.37
2019-02-12T22:54:14.638Z,28.93
2019-02-12T22:56:42.418Z,24.37
2019-02-12T22:59:10.150Z,23.23
2019-02-12T23:01:38.945Z,26.77
2019-02-12T23:04:06.717Z,25.73
2019-02-12T23:06:34.433Z,24.97
2019-02-12T23:09:03.978Z,25.07
2019-02-12T23:11:31.701Z,22.57
2019-02-12T23:13:59.491Z,22.53
2019-02-12T23:16:27.211Z,21.90
2019-02-12T23:18:54.937Z,22.27
2019-02-12T23:21:22.664Z,21.43
2019-02-12T23:23:50.382Z,17.40
2019-02-12T23:26:18.094Z,18.83
2019-02-12T23:28:45.820Z,18.53
2019-02-12T23:31:13.525Z,19.63
2019-02-12T23:33:41.269Z,19.33
2019-02-12T23:36:08.996Z,19.63
2019-02-12T23:38:36.725Z,20.90
2019-02-12T23:41:04.429Z,22.63
2019-02-12T23:43:32.214Z,22.47
2019-02-12T23:45:59.981Z,22.07
2019-02-12T23:48:27.774Z,19.77
2019-02-12T23:50:55.506Z,19.50
2019-02-12T23:53:23.233Z,21.67
2019-02-12T23:55:50.956Z,24.77
2019-02-12T23:58:18.668Z,22.27
